Rawlins Municipal Harvey Field
KRWL : rendu visible

Aérodrome :











RETROUVEZ-NOUS SUR...

 
LOGIN :

S'inscrire | Disclaimer

   EN    FR    IT 

 









Légende :    VFR   VFR Marginal   IFR   IFR Intensif   IFR Très Intensif
Visi : 
Plafond : 
>= 8 km
>= 3000ft
5 à 8 km
1000 à 3000 ft
1500m à 5 km
500 à 1000 ft
800 à 1500m
200 à 500 ft
< 800m
< 200 ft
Symboles :   Orages  Brouillard  Fortes neiges  Fortes précipitations  Vent > 20 kt






- Altitude de l'aérodrome : 6813 ft


KRWL - Rawlins Municipal Harvey Field

DERNIER METAR :
  • 180953Z AUTO 26014KT 10SM CLR M10/M15 A3024 RMK AO2 PK WND 25027/0855 SLP295 T11001150

METARs EXPIRÉS :
  • 180853Z AUTO 25022KT 10SM CLR M10/M16 A3022 RMK AO2 PK WND 25028/0755 SLP287 T11001156 51011
  • 180753Z AUTO 25021KT 10SM CLR M11/M15 A3021 RMK AO2 PK WND 25029/0701 SLP274 T11061150

TAF KRWL
Valide du 18 à 06h jusqu'au 19 à 06h UTC


180628Z 1806/1906 26026G36KT P6SM VCSH FEW015 OVC030
FM180700 26021G31KT P6SM FEW100
FM181800 24021G31KT P6SM BKN250



MET'MAP, la Météo Aéronautique d'un coup d'oeil ! - Copyright ORBIFLY Décembre 2007 - Disclaimer

ORBIFLY MET'MAP TEAM :

Programmation & Développement : Alexandra Zaïnal
Sur une idée originale de : Baudouin d'Aumeries
Assistance à la programmation : Marc-Olivier Méhu
Soutien technique & logistique : Manuel Goepfert

Contact : metmap@orbifly.com




SOURCES & CREDITS :

   NOAA       Earth
Advisory